Terminal Aerodrome Forecast
Issued by NWS

Home | Current Version | Previous Version | Graphics & Text | Print | Product List | Glossary On
Versions: 1 2 3 4 5 6 7 8 9 10 11 12 13 14 15 16 17 18 19 20 21 22 23
000
FTUS43 KBIS 252209 AAA
TAFJMS
TAF AMD
KJMS 252209Z 2522/2618 31009KT P6SM BKN020 OVC100
     FM260000 27004KT P6SM BKN030
     FM260400 21006KT P6SM VCSH OVC020
     FM260700 24006KT 3SM -SN OVC015
     FM260900 33016G24KT 2SM -SN OVC010
     FM261300 33011KT P6SM SCT060
     FM261700 27006KT P6SM SCT090=

USA.gov is the U.S. government's official web portal to all federal, state and local government web resources and services.